Time;durP1;ratioP1;P1;durP2;ratioP2;P2;SDS_P1;SDS_P2;PMS_P1;PMS_P2;Temp;Humidity;BMP_temperature;BMP_pressure;BME280_temperature;BME280_humidity;BME280_pressure;Samples;Min_cycle;Max_cycle;Signal;HPM_P1;HPM_P2
2022/10/14 00:00:04;;;;;;;8.52;6.55;;;17.30;99.90;17.30;99807.00;;;;341235;28;92260;-92
2022/10/14 00:00:16;;;;;;;9.68;6.63;;;17.30;99.90;17.30;99810.00;;;;344733;28;84762;-91
2022/10/14 00:00:28;;;;;;;10.93;6.50;;;17.30;99.90;17.30;99808.00;;;;342974;28;91140;-92
2022/10/14 00:00:41;;;;;;;10.38;6.15;;;17.30;99.90;17.30;99807.00;;;;343164;28;84216;-92
2022/10/14 00:00:52;;;;;;;9.20;5.68;;;17.30;99.90;17.20;99805.00;;;;341652;28;91678;-92
2022/10/14 00:01:11;;;;;;;8.70;5.50;;;17.30;99.90;17.20;99818.00;;;;343350;28;84039;-91
2022/10/14 00:01:23;;;;;;;7.57;5.05;;;17.30;99.90;17.20;99813.00;;;;340089;28;93281;-91
2022/10/14 00:01:35;;;;;;;8.30;5.30;;;17.30;99.90;17.30;99805.00;;;;343312;28;83993;-91
2022/10/14 00:01:47;;;;;;;9.60;5.82;;;17.30;99.90;17.30;99805.00;;;;341816;28;89396;-91
2022/10/14 00:01:59;;;;;;;9.63;6.43;;;17.30;99.90;17.30;99808.00;;;;343399;28;83372;-91
2022/10/14 00:02:11;;;;;;;8.88;6.13;;;17.30;99.90;17.40;99806.00;;;;343176;28;91189;-91
2022/10/14 00:02:23;;;;;;;8.20;5.82;;;17.30;99.90;17.40;99819.00;;;;340510;28;83828;-91
2022/10/14 00:02:35;;;;;;;7.35;5.55;;;17.30;99.90;17.60;99813.00;;;;341574;28;92041;-91
2022/10/14 00:02:47;;;;;;;8.35;5.45;;;17.30;99.90;17.70;99807.00;;;;339415;28;82648;-91
2022/10/14 00:02:58;;;;;;;9.93;5.47;;;17.40;99.90;17.60;99812.00;;;;341835;28;91813;-92
2022/10/14 00:03:10;;;;;;;9.65;5.47;;;17.40;99.90;17.50;99807.00;;;;340773;28;85156;-93
2022/10/14 00:03:22;;;;;;;9.77;6.07;;;17.40;99.90;17.40;99813.00;;;;340129;28;93100;-91
2022/10/14 00:03:35;;;;;;;10.38;6.97;;;17.40;99.90;17.40;99804.00;;;;343500;28;83765;-91
2022/10/14 00:03:47;;;;;;;12.55;7.10;;;17.40;99.90;17.40;99807.00;;;;341624;28;92297;-91
2022/10/14 00:03:59;;;;;;;13.63;6.75;;;17.40;99.90;17.50;99807.00;;;;343385;28;83414;-92
2022/10/14 00:04:10;;;;;;;13.00;6.00;;;17.40;99.90;17.50;99808.00;;;;340215;28;91736;-92
2022/10/14 00:04:22;;;;;;;10.00;5.57;;;17.40;99.90;17.60;99805.00;;;;341983;28;85168;-91
2022/10/14 00:04:34;;;;;;;9.65;5.60;;;17.40;99.90;17.60;99808.00;;;;341536;28;91828;-92
2022/10/14 00:04:46;;;;;;;11.90;5.80;;;17.40;99.90;17.70;99811.00;;;;344472;28;84656;-93
2022/10/14 00:04:58;;;;;;;11.13;6.03;;;17.40;99.90;17.80;99810.00;;;;341453;28;90232;-93
2022/10/14 00:05:09;;;;;;;8.25;5.88;;;17.40;99.90;17.80;99810.00;;;;343091;28;84866;-93
2022/10/14 00:05:21;;;;;;;8.25;6.05;;;17.50;99.90;17.80;99806.00;;;;342713;28;91893;-93
2022/10/14 00:05:33;;;;;;;9.20;6.05;;;17.50;99.90;17.80;99817.00;;;;343066;28;83526;-92
2022/10/14 00:05:45;;;;;;;11.32;6.50;;;17.50;99.90;17.70;99813.00;;;;344028;28;92353;-92
2022/10/14 00:05:57;;;;;;;10.48;6.32;;;17.50;99.90;17.70;99817.00;;;;344612;28;83445;-93
2022/10/14 00:06:12;;;;;;;9.20;6.25;;;17.50;99.90;17.50;99806.00;;;;341268;28;91074;-93
2022/10/14 00:06:30;;;;;;;8.48;5.47;;;17.50;99.90;17.50;99807.00;;;;343115;28;85163;-93
2022/10/14 00:06:41;;;;;;;9.80;5.70;;;17.50;99.90;17.50;99812.00;;;;340055;28;91046;-93
2022/10/14 00:06:53;;;;;;;9.10;6.00;;;17.50;99.90;17.60;99812.00;;;;341872;28;84797;-93
2022/10/14 00:07:05;;;;;;;9.07;6.00;;;17.50;99.90;17.50;99812.00;;;;344105;28;91232;-92
2022/10/14 00:07:17;;;;;;;9.45;5.82;;;17.50;99.90;17.40;99812.00;;;;343129;28;83438;-93
2022/10/14 00:07:29;;;;;;;10.02;5.50;;;17.50;99.90;17.30;99809.00;;;;341212;28;92864;-92
2022/10/14 00:07:42;;;;;;;9.25;5.32;;;17.50;99.90;17.40;99808.00;;;;342981;28;84614;-93
2022/10/14 00:07:54;;;;;;;9.38;5.72;;;17.50;99.90;17.40;99804.00;;;;341480;28;90288;-93
2022/10/14 00:08:05;;;;;;;9.38;5.82;;;17.50;99.90;17.40;99807.00;;;;341595;28;84830;-93
2022/10/14 00:08:17;;;;;;;9.57;5.55;;;17.50;99.90;17.40;99809.00;;;;342739;28;90762;-92
2022/10/14 00:08:29;;;;;;;10.38;5.65;;;17.50;99.90;17.40;99806.00;;;;344376;28;83933;-93
2022/10/14 00:08:41;;;;;;;9.60;5.88;;;17.50;99.90;17.40;99806.00;;;;339944;28;90746;-93
2022/10/14 00:08:53;;;;;;;8.02;5.93;;;17.50;99.90;17.30;99808.00;;;;343137;28;84038;-92
2022/10/14 00:09:07;;;;;;;9.52;6.63;;;17.40;99.90;17.30;99800.00;;;;342716;28;91329;-93
2022/10/14 00:09:19;;;;;;;10.88;6.97;;;17.40;99.90;17.40;99804.00;;;;343031;28;83582;-93
2022/10/14 00:09:31;;;;;;;13.25;6.60;;;17.40;99.90;17.60;99805.00;;;;341325;28;92036;-92
2022/10/14 00:09:43;;;;;;;12.82;6.15;;;17.40;99.90;17.60;99805.00;;;;341916;28;83821;-92
2022/10/14 00:09:55;;;;;;;12.93;5.85;;;17.40;99.90;17.70;99805.00;;;;340051;28;91986;-93
2022/10/14 00:10:07;;;;;;;10.82;5.80;;;17.40;99.90;17.70;99799.00;;;;341322;28;84761;-93
2022/10/14 00:10:19;;;;;;;9.40;5.35;;;17.40;99.90;17.70;99801.00;;;;341310;28;91464;-93
2022/10/14 00:10:31;;;;;;;10.60;6.18;;;17.40;99.90;17.60;99798.00;;;;343069;28;83817;-93
2022/10/14 00:10:42;;;;;;;10.00;6.35;;;17.50;99.90;17.50;99804.00;;;;338648;28;92473;-93
2022/10/14 00:10:54;;;;;;;10.30;6.65;;;17.40;99.90;17.50;99796.00;;;;341758;28;83863;-93
2022/10/14 00:11:12;;;;;;;10.05;6.22;;;17.40;99.90;17.50;99805.00;;;;339934;28;90993;-93
2022/10/14 00:11:27;;;;;;;10.07;5.75;;;17.40;99.90;17.70;99807.00;;;;341314;28;84356;-93
2022/10/14 00:11:39;;;;;;;8.70;5.82;;;17.40;99.90;17.70;99801.00;;;;339958;28;92700;-93
2022/10/14 00:11:51;;;;;;;7.75;5.60;;;17.50;99.90;17.60;99797.00;;;;340583;28;83743;-92
2022/10/14 00:12:03;;;;;;;10.00;5.80;;;17.50;99.90;17.60;99800.00;;;;339984;28;92144;-93
2022/10/14 00:12:14;;;;;;;9.75;5.70;;;17.50;99.90;17.50;99799.00;;;;340300;28;84730;-93
2022/10/14 00:12:28;;;;;;;8.63;5.53;;;17.50;99.90;17.30;99789.00;;;;344196;28;91904;-93
2022/10/14 00:12:40;;;;;;;8.13;5.10;;;17.50;99.90;17.40;99798.00;;;;344040;28;83572;-93
2022/10/14 00:12:52;;;;;;;8.77;4.93;;;17.40;99.90;17.50;99795.00;;;;345413;28;91840;-92
2022/10/14 00:13:04;;;;;;;8.35;4.88;;;17.50;99.90;17.50;99789.00;;;;343315;28;82985;-92
2022/10/14 00:13:16;;;;;;;7.53;4.90;;;17.50;99.90;17.40;99798.00;;;;342672;28;92035;-93
2022/10/14 00:13:27;;;;;;;7.72;5.32;;;17.50;99.90;17.40;99799.00;;;;344261;28;84430;-92
2022/10/14 00:13:39;;;;;;;7.82;5.40;;;17.50;99.90;17.50;99786.00;;;;342583;28;92471;-93
2022/10/14 00:13:58;;;;;;;9.45;5.85;;;17.40;99.90;17.40;99796.00;;;;342939;28;84154;-93
2022/10/14 00:14:14;;;;;;;11.05;5.93;;;17.50;99.90;17.30;99802.00;;;;341301;28;92067;-93
2022/10/14 00:14:26;;;;;;;10.15;5.80;;;17.40;99.90;17.20;99793.00;;;;341582;28;84816;-93
2022/10/14 00:14:38;;;;;;;10.52;6.05;;;17.40;99.90;17.30;99798.00;;;;342367;28;90841;-93
2022/10/14 00:14:50;;;;;;;10.55;6.32;;;17.40;99.90;17.40;99801.00;;;;345743;28;84530;-92
2022/10/14 00:15:02;;;;;;;8.90;6.75;;;17.40;99.90;17.50;99796.00;;;;342792;28;92239;-93
2022/10/14 00:15:14;;;;;;;10.10;6.38;;;17.40;99.90;17.50;99800.00;;;;345415;28;83341;-92
2022/10/14 00:15:25;;;;;;;10.75;6.05;;;17.50;99.90;17.50;99796.00;;;;341053;28;90928;-92
2022/10/14 00:15:40;;;;;;;11.43;5.95;;;17.50;99.90;17.50;99800.00;;;;341734;28;84677;-92
2022/10/14 00:15:52;;;;;;;13.23;5.95;;;17.50;99.90;17.60;99794.00;;;;341350;28;91973;-92
2022/10/14 00:16:05;;;;;;;11.70;5.97;;;17.50;99.90;17.40;99795.00;;;;340525;28;83903;-93
2022/10/14 00:16:19;;;;;;;10.00;5.88;;;17.50;99.90;17.50;99796.00;;;;340206;28;91890;-93
2022/10/14 00:16:34;;;;;;;9.43;6.25;;;17.50;99.90;17.40;99800.00;;;;343152;28;83574;-93
2022/10/14 00:16:47;;;;;;;9.35;6.25;;;17.50;99.90;17.30;99796.00;;;;341431;28;89436;-92
2022/10/14 00:16:59;;;;;;;9.30;6.05;;;17.50;99.90;17.30;99797.00;;;;343219;28;83394;-93
2022/10/14 00:17:11;;;;;;;8.77;5.80;;;17.50;99.90;17.30;99796.00;;;;340266;28;91174;-92
2022/10/14 00:17:23;;;;;;;7.43;5.75;;;17.40;99.90;17.30;99797.00;;;;341709;28;84616;-93
2022/10/14 00:17:35;;;;;;;8.18;5.80;;;17.50;99.90;17.30;99795.00;;;;340119;28;90831;-92
2022/10/14 00:17:47;;;;;;;9.00;5.80;;;17.40;99.90;17.40;99787.00;;;;343103;28;83639;-92
2022/10/14 00:17:59;;;;;;;8.38;5.55;;;17.40;99.90;17.40;99792.00;;;;342712;28;91448;-93
2022/10/14 00:18:11;;;;;;;9.30;6.28;;;17.40;99.90;17.40;99788.00;;;;344472;28;84285;-93
2022/10/14 00:18:23;;;;;;;10.35;6.70;;;17.40;99.90;17.40;99792.00;;;;342188;28;91412;-92
2022/10/14 00:18:34;;;;;;;11.95;6.82;;;17.40;99.90;17.50;99796.00;;;;341698;28;83740;-93
2022/10/14 00:18:47;;;;;;;11.80;6.53;;;17.40;99.90;17.50;99790.00;;;;340147;28;90215;-93
2022/10/14 00:18:59;;;;;;;9.77;6.70;;;17.40;99.90;17.50;99790.00;;;;344429;28;83383;-92
2022/10/14 00:19:11;;;;;;;9.48;6.45;;;17.50;99.90;17.50;99795.00;;;;342678;28;92509;-93
2022/10/14 00:19:23;;;;;;;10.00;6.68;;;17.50;99.90;17.50;99789.00;;;;341592;28;85380;-93
2022/10/14 00:19:35;;;;;;;11.77;6.63;;;17.50;99.90;17.50;99788.00;;;;342657;28;91231;-93
2022/10/14 00:19:47;;;;;;;10.93;6.25;;;17.50;99.90;17.50;99796.00;;;;341624;28;85295;-92
2022/10/14 00:19:59;;;;;;;9.80;6.13;;;17.50;99.90;17.50;99791.00;;;;341238;28;92858;-93
2022/10/14 00:20:11;;;;;;;9.18;6.00;;;17.50;99.90;17.40;99791.00;;;;340323;28;83511;-92
2022/10/14 00:20:23;;;;;;;9.38;5.72;;;17.50;99.90;17.30;99797.00;;;;340038;28;92141;-92
2022/10/14 00:20:35;;;;;;;9.30;6.00;;;17.50;99.90;17.30;99786.00;;;;345549;28;83987;-93
2022/10/14 00:21:00;;;;;;;9.75;6.10;;;17.50;99.90;17.50;99790.00;;;;342301;28;90923;-93
2022/10/14 00:21:12;;;;;;;9.88;6.35;;;17.50;99.90;17.50;99799.00;;;;341629;28;84610;-93
2022/10/14 00:21:24;;;;;;;9.68;6.18;;;17.50;99.90;17.50;99788.00;;;;345476;28;90871;-93
2022/10/14 00:21:38;;;;;;;9.98;6.35;;;17.50;99.90;17.50;99794.00;;;;343241;28;83761;-93
2022/10/14 00:21:49;;;;;;;11.00;6.43;;;17.50;99.90;17.50;99796.00;;;;344094;28;92042;-93
2022/10/14 00:22:01;;;;;;;11.75;6.53;;;17.50;99.90;17.50;99794.00;;;;341537;28;83411;-93
2022/10/14 00:22:13;;;;;;;11.40;6.88;;;17.50;99.90;17.40;99798.00;;;;344133;28;92908;-93
2022/10/14 00:22:25;;;;;;;11.65;6.53;;;17.50;99.90;17.30;99795.00;;;;341704;28;84490;-93
2022/10/14 00:22:37;;;;;;;10.55;5.97;;;17.40;99.90;17.30;99796.00;;;;338838;28;90374;-93
2022/10/14 00:22:49;;;;;;;10.82;6.00;;;17.40;99.90;17.30;99802.00;;;;344471;28;83585;-93
2022/10/14 00:23:01;;;;;;;10.98;6.43;;;17.40;99.90;17.30;99794.00;;;;341585;28;91797;-93
2022/10/14 00:23:13;;;;;;;10.25;6.88;;;17.40;99.90;17.40;99798.00;;;;343535;28;84295;-93
2022/10/14 00:23:25;;;;;;;10.20;6.85;;;17.40;99.90;17.40;99798.00;;;;344107;28;90801;-93
2022/10/14 00:23:37;;;;;;;10.05;6.13;;;17.40;99.90;17.30;99795.00;;;;343034;28;83707;-93
2022/10/14 00:23:49;;;;;;;9.25;5.85;;;17.40;99.90;17.40;99795.00;;;;341526;28;92230;-93
2022/10/14 00:24:01;;;;;;;9.25;6.18;;;17.40;99.90;17.40;99790.00;;;;344516;28;83347;-93
2022/10/14 00:24:14;;;;;;;9.32;6.45;;;17.40;99.90;17.40;99795.00;;;;342866;28;91817;-93
2022/10/14 00:24:27;;;;;;;10.85;6.60;;;17.40;99.90;17.40;99791.00;;;;340775;28;82317;-93
2022/10/14 00:24:39;;;;;;;11.45;6.88;;;17.40;99.90;17.40;99792.00;;;;341408;28;91690;-93
2022/10/14 00:24:50;;;;;;;10.23;6.68;;;17.40;99.90;17.50;99791.00;;;;340290;28;84600;-92
2022/10/14 00:25:03;;;;;;;9.05;6.55;;;17.40;99.90;17.50;99791.00;;;;342609;28;92407;-93
2022/10/14 00:25:15;;;;;;;11.10;6.65;;;17.40;99.90;17.50;99793.00;;;;344401;28;83862;-93
2022/10/14 00:25:27;;;;;;;10.57;6.45;;;17.40;99.90;17.40;99798.00;;;;342412;28;91992;-93
2022/10/14 00:25:38;;;;;;;9.02;6.32;;;17.40;99.90;17.30;99795.00;;;;338976;28;85338;-93
2022/10/14 00:25:51;;;;;;;9.52;6.07;;;17.40;99.90;17.30;99793.00;;;;342733;28;90829;-93
2022/10/14 00:26:02;;;;;;;8.60;6.00;;;17.40;99.90;17.30;99794.00;;;;344082;28;84809;-93
2022/10/14 00:26:29;;;;;;;8.57;6.07;;;17.40;99.90;17.40;99790.00;;;;340023;28;91643;-93
2022/10/14 00:26:43;;;;;;;10.15;6.80;;;17.40;99.90;17.30;99794.00;;;;341459;28;85008;-93
2022/10/14 00:26:54;;;;;;;11.05;6.90;;;17.40;99.90;17.30;99787.00;;;;345603;28;91246;-93
2022/10/14 00:27:07;;;;;;;11.50;6.97;;;17.40;99.90;17.40;99792.00;;;;344590;28;83414;-93
2022/10/14 00:27:18;;;;;;;11.70;7.13;;;17.40;99.90;17.40;99789.00;;;;341516;28;90691;-92
2022/10/14 00:27:31;;;;;;;12.07;7.53;;;17.40;99.90;17.30;99788.00;;;;339233;28;82532;-92
2022/10/14 00:27:42;;;;;;;10.73;7.25;;;17.40;99.90;17.20;99793.00;;;;340164;28;90733;-92
2022/10/14 00:27:54;;;;;;;9.93;6.18;;;17.40;99.90;17.20;99792.00;;;;343096;28;83460;-92
2022/10/14 00:28:06;;;;;;;9.68;5.57;;;17.40;99.90;17.20;99789.00;;;;340879;28;90621;-93
2022/10/14 00:28:18;;;;;;;8.63;5.38;;;17.30;99.90;17.30;99798.00;;;;341927;28;83967;-92
2022/10/14 00:28:30;;;;;;;8.85;5.78;;;17.30;99.90;17.50;99791.00;;;;345387;28;92951;-93
2022/10/14 00:28:42;;;;;;;9.07;5.90;;;17.30;99.90;17.60;99789.00;;;;341877;28;84224;-93
2022/10/14 00:28:54;;;;;;;10.20;6.50;;;17.40;99.90;17.50;99792.00;;;;341424;28;91358;-93
2022/10/14 00:29:10;;;;;;;12.05;7.88;;;17.40;99.90;17.50;99790.00;;;;341900;28;82459;-93
2022/10/14 00:29:23;;;;;;;11.32;7.50;;;17.40;99.90;17.50;99789.00;;;;339926;28;91320;-92
2022/10/14 00:29:35;;;;;;;10.85;6.80;;;17.40;99.90;17.50;99786.00;;;;345898;28;83583;-93
2022/10/14 00:29:46;;;;;;;11.57;6.45;;;17.40;99.90;17.60;99786.00;;;;341373;28;90771;-93
2022/10/14 00:29:58;;;;;;;11.30;6.70;;;17.40;99.90;17.60;99788.00;;;;341605;28;84742;-92
2022/10/14 00:30:11;;;;;;;10.73;6.82;;;17.40;99.90;17.60;99787.00;;;;341101;28;92331;-93
2022/10/14 00:30:23;;;;;;;10.20;6.78;;;17.50;99.90;17.50;99785.00;;;;342996;28;85289;-93
2022/10/14 00:30:34;;;;;;;10.07;6.82;;;17.50;99.90;17.50;99788.00;;;;342555;28;93632;-93
2022/10/14 00:30:59;;;;;;;12.77;7.03;;;17.50;99.90;17.50;99788.00;;;;344439;28;83363;-93
2022/10/14 00:31:11;;;;;;;10.68;7.18;;;17.40;99.90;17.40;99786.00;;;;344008;28;92125;-93
2022/10/14 00:31:23;;;;;;;10.60;7.35;;;17.40;99.90;17.30;99789.00;;;;341559;28;83570;-93
2022/10/14 00:31:35;;;;;;;11.40;6.93;;;17.40;99.90;17.20;99786.00;;;;342698;28;92112;-93
2022/10/14 00:31:47;;;;;;;10.15;6.05;;;17.40;99.90;17.20;99784.00;;;;342851;28;84240;-93
2022/10/14 00:31:58;;;;;;;9.30;6.05;;;17.40;99.90;17.10;99779.00;;;;339913;28;90534;-93
2022/10/14 00:32:11;;;;;;;9.25;6.25;;;17.40;99.90;17.10;99780.00;;;;341607;28;83698;-93
2022/10/14 00:32:22;;;;;;;9.32;6.40;;;17.40;99.90;17.20;99783.00;;;;341193;28;91258;-92
2022/10/14 00:32:34;;;;;;;9.13;6.25;;;17.40;99.90;17.40;99788.00;;;;341708;28;83315;-93
2022/10/14 00:32:46;;;;;;;7.60;5.88;;;17.40;99.90;17.40;99788.00;;;;343884;28;91897;-92
2022/10/14 00:32:58;;;;;;;7.97;6.20;;;17.40;99.90;17.30;99780.00;;;;341559;28;85534;-93
2022/10/14 00:33:09;;;;;;;9.10;6.28;;;17.40;99.90;17.20;99785.00;;;;341309;28;90733;-93
2022/10/14 00:33:23;;;;;;;10.98;6.80;;;17.40;99.90;17.10;99780.00;;;;342669;28;83796;-92
2022/10/14 00:33:34;;;;;;;13.05;7.00;;;17.40;99.90;17.00;99776.00;;;;342608;28;91782;-93
2022/10/14 00:33:47;;;;;;;11.05;6.75;;;17.40;99.90;17.00;99782.00;;;;344421;28;84913;-92
2022/10/14 00:33:58;;;;;;;10.95;6.80;;;17.30;99.90;17.00;99778.00;;;;342493;28;91283;-93
2022/10/14 00:34:12;;;;;;;11.43;6.82;;;17.30;99.90;17.00;99775.00;;;;340173;28;85086;-93
2022/10/14 00:34:23;;;;;;;11.23;6.75;;;17.30;99.90;17.10;99783.00;;;;342582;28;92484;-93
2022/10/14 00:34:35;;;;;;;10.30;6.60;;;17.30;99.90;17.20;99784.00;;;;342999;28;83665;-93
2022/10/14 00:34:47;;;;;;;11.30;6.85;;;17.30;99.90;17.10;99782.00;;;;341210;28;91608;-93
2022/10/14 00:34:59;;;;;;;11.65;7.43;;;17.30;99.90;17.20;99787.00;;;;342581;28;84666;-93
2022/10/14 00:35:11;;;;;;;11.57;7.28;;;17.30;99.90;17.20;99784.00;;;;343990;28;90495;-93
2022/10/14 00:35:22;;;;;;;11.13;7.60;;;17.30;99.90;17.20;99780.00;;;;344279;28;84694;-93
2022/10/14 00:35:34;;;;;;;11.55;8.02;;;17.30;99.90;17.20;99787.00;;;;339953;28;91899;-93
2022/10/14 00:35:57;;;;;;;12.80;7.97;;;17.30;99.90;17.30;99788.00;;;;344372;28;83705;-93
2022/10/14 00:36:11;;;;;;;11.70;7.60;;;17.30;99.90;17.10;99774.00;;;;341165;28;91638;-93
2022/10/14 00:36:23;;;;;;;11.38;8.20;;;17.30;99.90;17.20;99787.00;;;;340290;28;84079;-93
2022/10/14 00:36:35;;;;;;;12.70;8.15;;;17.30;99.90;17.20;99784.00;;;;344011;28;91041;-93
2022/10/14 00:36:47;;;;;;;13.23;8.52;;;17.30;99.90;17.10;99786.00;;;;340248;28;84754;-93
2022/10/14 00:36:59;;;;;;;11.52;8.40;;;17.20;99.90;17.10;99782.00;;;;342584;28;92771;-93
2022/10/14 00:37:11;;;;;;;12.98;8.32;;;17.20;99.90;17.10;99786.00;;;;340286;28;84822;-92
2022/10/14 00:37:22;;;;;;;14.50;8.93;;;17.20;99.90;17.10;99787.00;;;;342534;28;92058;-93
2022/10/14 00:37:35;;;;;;;15.32;9.20;;;17.20;99.90;17.10;99777.00;;;;342684;28;85382;-93
2022/10/14 00:37:46;;;;;;;12.85;8.98;;;17.20;99.90;17.20;99788.00;;;;339909;28;91571;-93
2022/10/14 00:37:58;;;;;;;13.20;8.77;;;17.20;99.90;17.20;99785.00;;;;341648;28;83564;-93
2022/10/14 00:38:10;;;;;;;12.05;8.55;;;17.20;99.90;17.30;99785.00;;;;341236;28;92363;-93
2022/10/14 00:38:22;;;;;;;11.48;8.63;;;17.20;99.90;17.20;99788.00;;;;344379;28;84178;-93
2022/10/14 00:38:34;;;;;;;11.32;8.13;;;17.20;99.90;17.30;99787.00;;;;343948;28;91235;-93
2022/10/14 00:38:47;;;;;;;12.82;8.38;;;17.20;99.90;17.40;99784.00;;;;342981;28;83513;-93
2022/10/14 00:38:59;;;;;;;12.40;7.72;;;17.20;99.90;17.40;99788.00;;;;341190;28;92966;-93
2022/10/14 00:39:11;;;;;;;12.48;7.90;;;17.30;99.90;17.30;99788.00;;;;341712;28;83679;-93
2022/10/14 00:39:22;;;;;;;12.38;8.13;;;17.20;99.90;17.40;99780.00;;;;341167;28;91782;-93
2022/10/14 00:39:35;;;;;;;12.55;7.95;;;17.20;99.90;17.30;99788.00;;;;345810;28;83675;-93
2022/10/14 00:39:46;;;;;;;11.23;8.30;;;17.30;99.90;17.30;99779.00;;;;341299;28;92140;-93
2022/10/14 00:39:58;;;;;;;13.25;8.52;;;17.20;99.90;17.20;99785.00;;;;341555;28;83754;-93
2022/10/14 00:40:11;;;;;;;11.77;8.45;;;17.20;99.90;17.20;99791.00;;;;341334;28;90993;-93
2022/10/14 00:40:23;;;;;;;11.00;8.60;;;17.20;99.90;17.20;99782.00;;;;340308;28;84025;-93
2022/10/14 00:40:35;;;;;;;13.20;8.25;;;17.20;99.90;17.40;99789.00;;;;340904;28;91827;-93
2022/10/14 00:40:46;;;;;;;14.30;8.00;;;17.20;99.90;17.40;99789.00;;;;342876;28;84893;-92
2022/10/14 00:40:58;;;;;;;13.38;7.78;;;17.30;99.90;17.40;99789.00;;;;341208;28;91988;-92
2022/10/14 00:41:13;;;;;;;10.88;7.97;;;17.30;99.90;17.20;99791.00;;;;342806;28;83708;-92
2022/10/14 00:41:30;;;;;;;10.93;8.23;;;17.30;99.90;17.10;99788.00;;;;339729;28;91940;-93
2022/10/14 00:41:42;;;;;;;12.90;8.15;;;17.30;99.90;17.20;99787.00;;;;343022;28;84096;-93
2022/10/14 00:41:53;;;;;;;14.15;8.35;;;17.20;99.90;17.20;99795.00;;;;341203;28;92261;-93
2022/10/14 00:42:10;;;;;;;13.80;8.55;;;17.20;99.90;17.30;99792.00;;;;341587;28;83452;-93
2022/10/14 00:42:22;;;;;;;13.82;9.18;;;17.20;99.90;17.10;99797.00;;;;339902;28;91112;-93
2022/10/14 00:42:34;;;;;;;14.18;9.85;;;17.20;99.90;17.20;99789.00;;;;341661;28;83404;-93
2022/10/14 00:42:46;;;;;;;12.98;9.77;;;17.20;99.90;17.30;99790.00;;;;341245;28;92576;-93
2022/10/14 00:42:58;;;;;;;13.95;9.85;;;17.20;99.90;17.20;99790.00;;;;340205;28;83476;-93
2022/10/14 00:43:12;;;;;;;14.32;9.73;;;17.20;99.90;17.20;99788.00;;;;341211;28;92885;-93
2022/10/14 00:43:25;;;;;;;13.75;9.93;;;17.20;99.90;17.30;99788.00;;;;342860;28;83862;-93
2022/10/14 00:44:01;;;;;;;13.50;10.00;;;17.20;99.90;17.30;99792.00;;;;341233;28;92592;-93
2022/10/14 00:44:13;;;;;;;12.45;9.07;;;17.20;99.90;17.30;99788.00;;;;342759;28;84233;-93
2022/10/14 00:44:25;;;;;;;11.82;9.25;;;17.20;99.90;17.40;99790.00;;;;341079;28;91711;-93
2022/10/14 00:44:43;;;;;;;11.98;9.38;;;17.20;99.90;17.40;99798.00;;;;342938;28;83601;-93
2022/10/14 00:45:05;;;;;;;12.32;8.93;;;17.20;99.90;17.30;99792.00;;;;343800;28;89938;-93
2022/10/14 00:45:22;;;;;;;15.18;9.32;;;17.20;99.90;17.10;99789.00;;;;340188;28;84913;-93
2022/10/14 00:45:33;;;;;;;13.63;9.02;;;17.20;99.90;17.10;99790.00;;;;341117;28;92952;-93
2022/10/14 00:45:45;;;;;;;12.65;9.15;;;17.20;99.90;17.20;99788.00;;;;341686;28;82967;-93
2022/10/14 00:45:57;;;;;;;14.00;9.63;;;17.20;99.90;17.20;99786.00;;;;341149;28;92957;-92
2022/10/14 00:46:10;;;;;;;13.77;9.70;;;17.20;99.90;17.20;99783.00;;;;344334;28;84407;-93
2022/10/14 00:46:24;;;;;;;14.18;10.07;;;17.20;99.90;17.10;99789.00;;;;342636;28;91320;-93
2022/10/14 00:46:38;;;;;;;14.73;10.25;;;17.20;99.90;17.00;99786.00;;;;342992;28;84271;-93
2022/10/14 00:46:50;;;;;;;13.80;10.00;;;17.20;99.90;17.10;99790.00;;;;339928;28;92041;-93
2022/10/14 00:47:02;;;;;;;15.18;10.38;;;17.20;99.90;17.10;99788.00;;;;340019;28;86279;-93
2022/10/14 00:47:14;;;;;;;16.73;10.30;;;17.20;99.90;17.00;99794.00;;;;341217;28;91571;-93
2022/10/14 00:47:26;;;;;;;19.00;10.88;;;17.20;99.90;17.10;99786.00;;;;341416;28;87210;-93
2022/10/14 00:47:38;;;;;;;18.83;11.30;;;17.10;99.90;17.20;99793.00;;;;341343;28;91037;-92
2022/10/14 00:47:50;;;;;;;20.02;11.63;;;17.10;99.90;17.20;99788.00;;;;340219;28;87411;-92
2022/10/14 00:48:02;;;;;;;20.83;12.75;;;17.10;99.90;17.20;99788.00;;;;341322;28;89182;-93
2022/10/14 00:48:14;;;;;;;17.77;12.30;;;17.10;99.90;17.20;99785.00;;;;342702;28;86622;-93
2022/10/14 00:48:25;;;;;;;18.20;11.95;;;17.10;99.90;17.20;99787.00;;;;341194;28;92349;-92
2022/10/14 00:48:37;;;;;;;17.38;11.60;;;17.10;99.90;17.20;99785.00;;;;342818;28;86459;-93
2022/10/14 00:48:49;;;;;;;17.27;10.82;;;17.10;99.90;17.00;99791.00;;;;342560;28;92250;-93
2022/10/14 00:49:23;;;;;;;17.27;10.57;;;17.10;99.90;17.00;99796.00;;;;340172;28;85637;-93
2022/10/14 00:49:40;;;;;;;16.40;11.38;;;17.10;99.90;17.20;99794.00;;;;339825;28;91692;-92
2022/10/14 00:49:52;;;;;;;16.38;11.40;;;17.10;99.90;17.10;99789.00;;;;341561;28;86764;-92
2022/10/14 00:50:04;;;;;;;18.00;11.82;;;17.00;99.90;17.10;99795.00;;;;339777;28;91449;-92
2022/10/14 00:50:16;;;;;;;19.33;12.30;;;17.10;99.90;17.00;99796.00;;;;340123;28;86315;-93
2022/10/14 00:50:28;;;;;;;17.45;11.50;;;17.00;99.90;16.90;99797.00;;;;342477;28;92630;-93
2022/10/14 00:50:42;;;;;;;15.70;10.80;;;17.00;99.90;16.90;99791.00;;;;340104;28;87420;-93
2022/10/14 00:50:54;;;;;;;16.35;11.27;;;17.00;99.90;16.80;99790.00;;;;341285;28;91621;-93
2022/10/14 00:51:06;;;;;;;16.48;11.50;;;17.00;99.90;16.90;99791.00;;;;342895;28;86886;-92
2022/10/14 00:51:18;;;;;;;15.45;10.90;;;17.00;99.90;17.10;99789.00;;;;343734;28;90876;-93
2022/10/14 00:51:30;;;;;;;16.40;10.80;;;17.00;99.90;17.00;99788.00;;;;341305;28;87665;-93
2022/10/14 00:51:50;;;;;;;17.45;10.93;;;17.00;99.90;17.00;99792.00;;;;342658;28;91790;-93
2022/10/14 00:52:09;;;;;;;20.33;11.98;;;17.00;99.90;17.00;99788.00;;;;342758;28;86858;-92
2022/10/14 00:52:21;;;;;;;17.70;11.15;;;17.00;99.90;16.90;99791.00;;;;339836;28;92076;-93
2022/10/14 00:52:33;;;;;;;16.60;11.35;;;17.00;99.90;17.00;99788.00;;;;340130;28;86222;-93
2022/10/14 00:52:45;;;;;;;18.30;11.15;;;17.00;99.90;17.10;99794.00;;;;342474;28;93357;-93
2022/10/14 00:52:57;;;;;;;17.52;10.63;;;17.00;99.90;17.10;99795.00;;;;344338;28;86182;-92
2022/10/14 00:53:10;;;;;;;18.27;11.07;;;17.00;99.90;17.00;99795.00;;;;339960;28;90486;-92
2022/10/14 00:53:22;;;;;;;17.25;11.38;;;17.10;99.90;17.00;99793.00;;;;341523;28;87297;-92
2022/10/14 00:53:34;;;;;;;16.02;11.55;;;17.00;99.90;17.10;99798.00;;;;340932;28;91698;-92
2022/10/14 00:53:45;;;;;;;16.63;11.40;;;17.00;99.90;17.20;99791.00;;;;340135;28;87600;-92
2022/10/14 00:53:57;;;;;;;16.52;11.55;;;17.00;99.90;17.20;99791.00;;;;341244;28;91781;-92
2022/10/14 00:54:10;;;;;;;18.20;12.40;;;17.00;99.90;17.20;99796.00;;;;340015;28;86401;-92
2022/10/14 00:54:24;;;;;;;18.95;12.45;;;17.00;99.90;17.20;99789.00;;;;341198;28;92306;-92
2022/10/14 00:54:41;;;;;;;20.92;12.65;;;17.10;99.90;17.20;99787.00;;;;341487;28;86283;-92
2022/10/14 00:55:16;;;;;;;19.08;11.80;;;17.10;99.90;17.10;99797.00;;;;342515;28;92793;-92
2022/10/14 00:55:28;;;;;;;18.23;13.20;;;17.10;99.90;17.00;99793.00;;;;339893;28;85490;-92
2022/10/14 00:55:41;;;;;;;16.98;12.55;;;17.00;99.90;17.00;99782.00;;;;338052;28;91914;-92
2022/10/14 00:55:53;;;;;;;16.13;12.30;;;17.10;99.90;17.00;99790.00;;;;341531;28;86155;-92
2022/10/14 00:56:05;;;;;;;17.17;12.57;;;17.00;99.90;17.00;99797.00;;;;339765;28;92344;-93
2022/10/14 00:56:20;;;;;;;17.17;12.75;;;17.00;99.90;17.00;99790.00;;;;342924;28;86896;-92
2022/10/14 00:56:32;;;;;;;17.92;13.52;;;17.00;99.90;17.00;99786.00;;;;339808;28;91794;-92
2022/10/14 00:56:44;;;;;;;18.85;13.63;;;17.00;99.90;17.00;99793.00;;;;340156;28;87587;-92
2022/10/14 00:56:56;;;;;;;18.33;13.48;;;16.90;99.90;17.00;99794.00;;;;339968;28;91531;-92
2022/10/14 00:57:08;;;;;;;19.75;13.55;;;16.90;99.90;16.90;99798.00;;;;340194;28;85536;-93
2022/10/14 00:57:20;;;;;;;21.77;14.25;;;16.90;99.90;16.90;99794.00;;;;339641;28;93057;-92